Time;durP1;ratioP1;P1;durP2;ratioP2;P2;SDS_P1;SDS_P2;PMS_P1;PMS_P2;Temp;Humidity;BMP_temperature;BMP_pressure;BME280_temperature;BME280_humidity;BME280_pressure;Samples;Min_cycle;Max_cycle;Signal;HPM_P1;HPM_P2
2023/01/03 00:01:37;;;;;;;9.63;3.90;;;;;;;4.97;98.30;100496.66;5092485;28;20498;-66
2023/01/03 00:04:07;;;;;;;3.95;3.45;;;;;;;5.00;98.60;100499.31;5093448;28;20048;-66
2023/01/03 00:06:39;;;;;;;7.95;4.57;;;;;;;5.02;98.24;100500.22;5093764;28;20630;-65
2023/01/03 00:09:10;;;;;;;6.63;3.65;;;;;;;5.02;98.30;100502.75;5094056;28;20044;-65
2023/01/03 00:14:24;;;;;;;2.83;2.60;;;;;;;4.97;98.47;100499.19;5093447;28;20051;-65
2023/01/03 00:16:55;;;;;;;9.43;3.78;;;;;;;5.02;98.25;100502.75;5095016;28;20048;-65
2023/01/03 00:19:28;;;;;;;4.18;3.65;;;;;;;5.01;98.36;100511.16;5097667;28;20492;-65
2023/01/03 00:21:57;;;;;;;3.03;2.58;;;;;;;4.99;98.23;100501.81;5097614;28;20462;-65
2023/01/03 00:24:26;;;;;;;;;;;;;;;5.02;98.63;100510.34;5097719;28;20097;-65
2023/01/03 00:26:55;;;;;;;3.20;2.90;;;;;;;5.02;98.30;100502.75;5097037;28;19920;-65
2023/01/03 00:29:24;;;;;;;2.78;2.58;;;;;;;5.04;98.48;100503.66;5096113;28;20052;-66
2023/01/03 00:31:52;;;;;;;3.10;2.90;;;;;;;5.06;98.49;100512.16;5097139;28;20119;-66
2023/01/03 00:34:21;;;;;;;6.33;2.00;;;;;;;5.04;98.36;100511.25;5097059;28;20283;-66
2023/01/03 00:36:52;;;;;;;7.17;3.57;;;;;;;5.07;98.03;100516.41;5097062;28;20040;-66
2023/01/03 00:39:21;;;;;;;4.18;3.55;;;;;;;5.04;98.48;100516.31;5097288;28;20394;-65
2023/01/03 00:41:50;;;;;;;4.50;3.15;;;;;;;5.06;98.45;100522.28;5097649;28;20061;-65
2023/01/03 00:44:19;;;;;;;3.22;2.92;;;;;;;5.01;98.27;100510.28;5097173;28;20123;-66
2023/01/03 00:46:48;;;;;;;14.07;4.38;;;;;;;5.01;97.86;100506.09;5096870;28;20044;-66
2023/01/03 00:49:17;;;;;;;3.35;3.05;;;;;;;5.05;98.40;100507.06;5096862;28;20555;-65
2023/01/03 00:51:46;;;;;;;1.92;1.83;;;;;;;5.05;98.53;100510.44;5096812;28;20047;-65
2023/01/03 00:54:16;;;;;;;4.65;2.67;;;;;;;5.06;98.07;100514.69;5096930;28;20048;-65
2023/01/03 00:56:47;;;;;;;2.40;2.20;;;;;;;5.05;98.06;100518.03;5096767;28;20563;-65
2023/01/03 00:59:18;;;;;;;2.10;1.92;;;;;;;5.07;98.67;100530.72;5096601;28;20040;-65
2023/01/03 01:01:49;;;;;;;3.75;3.38;;;;;;;5.08;98.13;100535.88;5096666;28;20044;-65
2023/01/03 01:04:21;;;;;;;3.28;2.95;;;;;;;5.09;99.05;100544.28;5095351;28;20072;-65
2023/01/03 01:06:53;;;;;;;3.40;3.00;;;;;;;5.09;97.87;100537.56;5096814;28;20540;-65
2023/01/03 01:09:25;;;;;;;1.80;1.70;;;;;;;5.10;98.37;100538.44;5096757;28;20044;-65
2023/01/03 01:11:55;;;;;;;2.47;2.13;;;;;;;5.12;98.10;100545.28;5096745;28;20508;-65
2023/01/03 01:14:25;;;;;;;6.70;4.15;;;;;;;5.11;98.56;100543.53;5096673;28;20405;-65
2023/01/03 01:16:58;;;;;;;1.17;1.13;;;;;;;5.14;98.29;100546.19;5096371;28;20101;-66
2023/01/03 01:19:30;;;;;;;4.97;3.88;;;;;;;5.14;97.97;100543.66;5096210;28;20047;-65
2023/01/03 01:22:00;;;;;;;5.85;2.90;;;;;;;5.16;98.09;100542.03;5096552;28;20398;-65
2023/01/03 01:24:31;;;;;;;8.73;3.50;;;;;;;5.19;98.31;100546.34;5096457;28;20118;-65
2023/01/03 01:27:00;;;;;;;2.83;2.58;;;;;;;5.20;98.03;100551.47;5096189;28;20044;-66
2023/01/03 01:29:28;;;;;;;8.77;3.80;;;;;;;5.19;98.13;100554.78;5095125;28;20071;-65
2023/01/03 01:31:57;;;;;;;2.60;2.23;;;;;;;5.21;98.38;100558.22;5096030;28;20132;-66
2023/01/03 01:34:26;;;;;;;1.55;1.45;;;;;;;5.20;98.10;100548.94;5095945;28;20078;-66
2023/01/03 01:36:54;;;;;;;3.43;2.03;;;;;;;5.21;98.05;100555.69;5096252;28;20404;-66
2023/01/03 01:39:26;;;;;;;2.37;2.17;;;;;;;5.23;98.18;100554.09;5095885;28;20085;-66
2023/01/03 01:44:48;;;;;;;6.80;2.97;;;;;;;5.24;98.22;100544.84;5096347;28;20056;-66
2023/01/03 01:47:33;;;;;;;7.93;3.70;;;;;;;5.23;98.20;100548.19;5095764;28;20098;-66
2023/01/03 01:50:11;;;;;;;3.00;2.70;;;;;;;5.25;98.49;100557.56;5095678;28;20048;-66
2023/01/03 01:52:46;;;;;;;1.80;1.70;;;;;;;5.26;98.00;100555.84;5096141;28;20489;-66
2023/01/03 01:55:21;;;;;;;7.05;2.97;;;;;;;5.26;97.71;100559.25;5095533;28;20079;-66
2023/01/03 01:57:52;;;;;;;1.98;1.50;;;;;;;5.26;97.67;100553.31;5095509;28;20054;-66
2023/01/03 02:00:22;;;;;;;3.13;2.78;;;;;;;5.26;98.22;100556.72;5095518;28;20105;-66
2023/01/03 02:02:53;;;;;;;4.38;3.65;;;;;;;5.27;98.24;100561.00;5095756;28;20036;-66
2023/01/03 02:05:23;;;;;;;1.92;1.80;;;;;;;5.23;98.18;100556.63;5095359;28;20059;-66
2023/01/03 02:07:54;;;;;;;2.45;2.17;;;;;;;5.22;98.24;100552.38;5095333;28;20102;-66
2023/01/03 02:10:35;;;;;;;4.07;3.67;;;;;;;5.22;98.00;100547.31;5095306;28;20059;-66
2023/01/03 02:13:22;;;;;;;1.98;1.80;;;;;;;5.19;98.05;100536.22;5095257;28;20048;-66
2023/01/03 02:16:11;;;;;;;1.15;1.08;;;;;;;5.15;97.96;100540.31;5095613;28;20040;-66
2023/01/03 02:18:46;;;;;;;;;;;;;;;5.11;98.08;100538.47;5095821;28;20032;-66
2023/01/03 02:21:38;;;;;;;2.20;2.03;;;;;;;5.07;98.01;100526.53;5095052;28;19930;-66
2023/01/03 02:24:32;;;;;;;2.83;2.13;;;;;;;5.01;98.28;100551.63;5095383;28;20082;-66
2023/01/03 02:27:15;;;;;;;2.88;2.33;;;;;;;4.97;97.94;100554.84;5094732;28;20052;-66
2023/01/03 02:30:14;;;;;;;2.72;2.20;;;;;;;4.87;98.02;100547.72;5095192;28;20052;-66
2023/01/03 02:32:51;;;;;;;2.55;2.35;;;;;;;4.78;98.25;100542.34;5095033;28;20075;-65
2023/01/03 02:35:28;;;;;;;1.35;1.27;;;;;;;4.74;97.70;100540.53;5094835;28;20044;-65
2023/01/03 02:38:04;;;;;;;4.00;2.35;;;;;;;4.64;97.72;100541.00;5095020;28;20052;-65
2023/01/03 02:40:39;;;;;;;4.05;3.65;;;;;;;4.61;97.66;100548.47;5095168;28;20082;-65
2023/01/03 02:43:16;;;;;;;3.70;3.13;;;;;;;4.58;97.57;100545.84;5094664;28;20054;-65
2023/01/03 02:46:05;;;;;;;2.13;1.95;;;;;;;4.56;97.69;100547.41;5094978;28;20054;-65
2023/01/03 02:48:40;;;;;;;4.10;3.80;;;;;;;4.53;97.85;100550.72;5095120;28;20070;-65
2023/01/03 02:51:15;;;;;;;3.45;3.10;;;;;;;4.48;97.31;100546.28;5094855;28;20068;-65
2023/01/03 02:53:48;;;;;;;3.67;2.50;;;;;;;4.39;97.33;100538.38;5094486;28;20067;-65
2023/01/03 02:56:23;;;;;;;1.92;1.73;;;;;;;4.35;97.37;100539.03;5094716;28;20079;-65
2023/01/03 02:58:58;;;;;;;4.35;3.80;;;;;;;4.29;97.52;100536.31;5094305;28;20097;-65
2023/01/03 03:01:30;;;;;;;4.30;2.85;;;;;;;4.24;97.52;100532.75;5094351;28;20052;-65
2023/01/03 03:04:02;;;;;;;4.40;4.05;;;;;;;4.25;97.23;100537.84;5094339;28;20071;-65
2023/01/03 03:06:40;;;;;;;5.60;4.68;;;;;;;4.21;97.21;100535.13;5094609;28;20040;-65
2023/01/03 03:09:09;;;;;;;2.15;1.50;;;;;;;4.13;97.28;100541.59;5094210;28;20051;-65
2023/01/03 03:14:37;;;;;;;5.50;4.28;;;;;;;4.04;97.05;100557.22;5069237;28;20044;-65
2023/01/03 03:17:13;;;;;;;1.52;1.42;;;;;;;4.06;97.17;100551.44;5094099;28;20048;-66
2023/01/03 03:25:12;;;;;;;3.35;2.60;;;;;;;4.02;97.29;100544.56;5093948;28;20049;-66
2023/01/03 03:30:27;;;;;;;2.92;2.72;;;;;;;3.93;96.66;100554.28;5093932;28;20042;-65
2023/01/03 03:33:04;;;;;;;3.40;3.08;;;;;;;3.91;96.92;100545.78;5093885;28;20048;-66
2023/01/03 03:35:42;;;;;;;2.78;2.30;;;;;;;3.82;96.89;100545.41;5093834;28;20051;-66
2023/01/03 03:38:13;;;;;;;2.03;1.75;;;;;;;3.79;96.72;100552.84;5094035;28;20078;-66
2023/01/03 03:46:32;;;;;;;3.75;3.33;;;;;;;3.67;96.57;100554.88;5093711;28;20043;-66
2023/01/03 03:51:49;;;;;;;6.20;3.80;;;;;;;3.64;96.23;100564.88;5093068;28;20071;-65
2023/01/03 03:54:22;;;;;;;3.60;3.30;;;;;;;3.61;95.90;100579.88;5093673;28;20490;-65
2023/01/03 03:56:56;;;;;;;2.70;2.47;;;;;;;3.56;96.13;100583.88;5093600;28;20089;-66
2023/01/03 03:59:27;;;;;;;3.83;3.03;;;;;;;3.55;95.94;100584.66;5093770;28;20048;-65
2023/01/03 04:01:59;;;;;;;16.75;4.93;;;;;;;3.50;96.26;100586.16;5093575;28;20052;-66
2023/01/03 04:04:36;;;;;;;3.47;3.20;;;;;;;3.47;96.20;100586.03;5093943;28;20045;-65
2023/01/03 04:07:05;;;;;;;3.70;2.47;;;;;;;3.46;96.21;100589.34;5093806;28;20044;-65
2023/01/03 04:09:34;;;;;;;3.17;2.92;;;;;;;3.49;96.30;100594.53;5093367;28;20048;-66
2023/01/03 04:12:03;;;;;;;1.35;1.25;;;;;;;3.45;95.83;100591.81;5093754;28;20043;-65
2023/01/03 04:14:32;;;;;;;3.25;2.47;;;;;;;3.40;95.61;100594.16;5093388;28;20040;-65
2023/01/03 04:17:01;;;;;;;;;;;;;;;3.40;95.84;100596.66;5094103;28;20083;-65
2023/01/03 04:19:32;;;;;;;1.58;1.48;;;;;;;3.38;96.10;100603.31;5093229;28;19959;-65
2023/01/03 04:22:01;;;;;;;4.80;3.10;;;;;;;3.36;95.47;100607.41;5093679;28;20048;-65
2023/01/03 04:24:29;;;;;;;5.13;2.25;;;;;;;3.32;96.11;100611.47;5093622;28;20490;-65
2023/01/03 04:26:58;;;;;;;1.50;1.40;;;;;;;3.33;95.64;100612.34;5093060;28;20058;-66
2023/01/03 04:29:27;;;;;;;6.13;2.72;;;;;;;3.35;95.69;100610.75;5093350;28;20036;-65
2023/01/03 04:32:01;;;;;;;3.70;3.17;;;;;;;3.40;95.91;100619.38;5093503;28;20429;-65
2023/01/03 04:34:32;;;;;;;2.40;2.20;;;;;;;3.41;95.86;100616.03;5093197;28;20533;-66
2023/01/03 04:37:00;;;;;;;2.33;2.13;;;;;;;3.38;95.59;100614.25;5093571;28;20117;-65
2023/01/03 04:39:29;;;;;;;2.40;2.20;;;;;;;3.37;95.81;100615.06;5093406;28;20423;-65
2023/01/03 04:42:00;;;;;;;3.53;3.23;;;;;;;3.42;95.77;100622.81;5093085;28;20048;-65
2023/01/03 04:44:28;;;;;;;1.80;1.70;;;;;;;3.43;95.42;100614.47;5093395;28;20052;-66
2023/01/03 04:46:56;;;;;;;3.05;2.83;;;;;;;3.45;95.45;100612.88;5093418;28;20059;-65
2023/01/03 04:49:25;;;;;;;3.93;3.50;;;;;;;3.52;95.48;100614.84;5093056;28;20043;-65
2023/01/03 04:51:55;;;;;;;6.40;3.33;;;;;;;3.52;95.80;100609.81;5092971;28;20543;-65
2023/01/03 04:54:24;;;;;;;1.88;1.73;;;;;;;3.53;95.38;100621.59;5093322;28;20383;-65
2023/01/03 04:56:53;;;;;;;2.10;1.93;;;;;;;3.56;95.39;100616.69;5093037;28;20093;-66
2023/01/03 04:59:21;;;;;;;3.43;3.17;;;;;;;3.57;95.68;100618.44;5093186;28;20127;-65
2023/01/03 05:01:51;;;;;;;5.60;3.97;;;;;;;3.59;96.17;100619.34;5092885;28;20319;-66
2023/01/03 05:04:21;;;;;;;9.07;4.68;;;;;;;3.61;95.60;100622.78;5095137;28;20050;-66
2023/01/03 05:06:52;;;;;;;5.38;4.15;;;;;;;3.62;95.96;100627.06;5096489;28;20040;-65
2023/01/03 05:09:23;;;;;;;5.97;5.43;;;;;;;3.63;95.80;100635.47;5096814;28;20064;-65
2023/01/03 05:11:52;;;;;;;8.90;7.80;;;;;;;3.62;95.57;100629.59;5096382;28;20126;-66
2023/01/03 05:14:20;;;;;;;4.00;3.70;;;;;;;3.64;95.53;100629.63;5096423;28;20036;-65
2023/01/03 05:16:49;;;;;;;3.90;3.53;;;;;;;3.68;95.51;100632.34;5095426;28;20440;-65
2023/01/03 05:19:18;;;;;;;7.50;6.07;;;;;;;3.71;95.74;100631.63;5096330;28;20040;-65
2023/01/03 05:27:06;;;;;;;3.17;2.95;;;;;;;3.68;96.23;100622.25;5096220;28;20094;-66
2023/01/03 05:29:37;;;;;;;1.70;1.60;;;;;;;3.68;96.06;100627.31;5096357;28;20040;-66
2023/01/03 05:32:06;;;;;;;4.63;4.18;;;;;;;3.70;96.37;100635.78;5096081;28;20052;-66
2023/01/03 05:34:35;;;;;;;4.05;3.63;;;;;;;3.69;96.05;100639.13;5096004;28;20047;-65
2023/01/03 05:37:03;;;;;;;2.57;2.37;;;;;;;3.65;96.02;100627.16;5095986;28;20040;-66
2023/01/03 05:39:33;;;;;;;5.15;4.03;;;;;;;3.64;95.60;100645.66;5095866;28;20551;-66
2023/01/03 05:42:02;;;;;;;5.25;3.30;;;;;;;3.63;96.41;100640.50;5095761;28;20474;-65
2023/01/03 05:44:33;;;;;;;2.38;2.17;;;;;;;3.62;96.32;100642.22;5095868;28;20044;-65
2023/01/03 05:47:04;;;;;;;3.70;3.40;;;;;;;3.64;95.78;100644.78;5095791;28;20040;-65
2023/01/03 05:49:34;;;;;;;8.48;4.10;;;;;;;3.66;95.71;100648.22;5096087;28;20048;-65
2023/01/03 05:52:03;;;;;;;3.55;3.25;;;;;;;3.69;96.00;100649.22;5094475;28;20047;-65
2023/01/03 05:54:33;;;;;;;4.35;3.28;;;;;;;3.70;96.17;100639.97;5095571;28;20044;-65
2023/01/03 05:57:02;;;;;;;5.85;4.25;;;;;;;3.71;96.51;100652.69;5096562;28;20066;-65
2023/01/03 05:59:31;;;;;;;6.47;3.90;;;;;;;3.74;96.00;100646.91;5095547;28;20117;-65
2023/01/03 06:02:00;;;;;;;3.40;3.10;;;;;;;3.75;96.17;100656.19;5095401;28;20047;-65
2023/01/03 06:04:29;;;;;;;7.50;4.38;;;;;;;3.78;96.01;100663.88;5095290;28;20482;-65
2023/01/03 06:06:57;;;;;;;10.50;9.40;;;;;;;3.80;95.83;100668.19;5094119;28;20389;-65
2023/01/03 06:09:26;;;;;;;10.18;8.27;;;;;;;3.81;96.40;100659.84;5095353;28;20058;-66
2023/01/03 06:11:58;;;;;;;18.67;10.38;;;;;;;3.78;96.23;100652.13;5095130;28;20055;-65
2023/01/03 06:14:26;;;;;;;8.82;7.97;;;;;;;3.82;96.25;100656.50;5095064;28;20054;-65
2023/01/03 06:19:33;;;;;;;8.05;7.25;;;;;;;3.84;96.26;100661.63;5095186;28;20284;-65
2023/01/03 06:22:02;;;;;;;13.30;10.13;;;;;;;3.81;96.21;100669.94;5094885;28;20043;-65
2023/01/03 06:24:39;;;;;;;6.18;5.60;;;;;;;3.84;96.45;100675.09;5094992;28;20074;-65
2023/01/03 06:27:10;;;;;;;5.25;4.32;;;;;;;3.84;96.59;100687.72;5094947;28;20501;-66
2023/01/03 06:29:38;;;;;;;5.13;4.75;;;;;;;3.86;96.46;100688.66;5094847;28;20036;-66
2023/01/03 06:32:07;;;;;;;4.70;3.80;;;;;;;3.85;96.57;100686.94;5094831;28;20071;-65
2023/01/03 06:34:37;;;;;;;8.63;7.05;;;;;;;3.85;96.51;100686.94;5094765;28;20063;-65
2023/01/03 06:37:07;;;;;;;6.13;5.20;;;;;;;3.88;96.32;100692.13;5094817;28;20051;-66
2023/01/03 06:39:35;;;;;;;4.13;3.72;;;;;;;3.88;96.66;100692.13;5093481;28;20312;-66
2023/01/03 06:53:10;;;;;;;3.05;2.35;;;;;;;3.81;96.42;100695.19;5094429;28;20074;-66
2023/01/03 06:55:33;;;;;;;30.52;4.68;;;;;;;3.67;96.43;100703.81;5094756;28;20417;-66
2023/01/03 06:58:01;;;;;;;2.92;2.55;;;;;;;3.62;96.21;100717.06;5094402;28;20040;-65
2023/01/03 07:00:32;;;;;;;1.90;1.77;;;;;;;3.58;96.03;100716.03;5094342;28;20099;-65
2023/01/03 07:03:01;;;;;;;1.92;1.83;;;;;;;3.56;96.21;100721.81;5094308;28;20051;-66
2023/01/03 07:05:39;;;;;;;2.75;2.55;;;;;;;3.55;96.46;100727.69;5093283;28;20394;-66
2023/01/03 07:08:08;;;;;;;3.23;2.90;;;;;;;3.52;96.46;100733.44;5094423;28;20040;-66
2023/01/03 07:10:37;;;;;;;4.63;3.45;;;;;;;3.51;96.51;100731.72;5094167;28;20276;-66
2023/01/03 07:15:46;;;;;;;3.40;3.17;;;;;;;3.44;96.43;100732.25;5100290;28;20048;-65
2023/01/03 07:18:15;;;;;;;5.03;2.25;;;;;;;3.46;96.55;100734.81;5114388;28;20047;-65
2023/01/03 07:20:45;;;;;;;5.32;4.50;;;;;;;3.50;96.29;100736.69;5114280;28;20059;-65
2023/01/03 07:23:14;;;;;;;2.08;1.98;;;;;;;3.49;96.00;100730.78;5114407;28;20497;-66
2023/01/03 07:25:43;;;;;;;4.33;3.63;;;;;;;3.57;96.78;100742.09;5113764;28;20122;-65
2023/01/03 07:28:14;;;;;;;5.27;4.03;;;;;;;3.61;96.11;100735.50;5114016;28;20295;-65
2023/01/03 07:30:46;;;;;;;4.65;3.28;;;;;;;3.63;96.55;100744.88;5114187;28;20055;-65
2023/01/03 07:33:17;;;;;;;2.83;2.05;;;;;;;3.66;96.39;100739.97;5114193;28;20082;-65
2023/01/03 07:35:46;;;;;;;4.32;3.92;;;;;;;3.73;96.65;100753.72;5114165;28;20075;-65
2023/01/03 07:38:15;;;;;;;4.13;3.80;;;;;;;3.77;96.80;100758.94;5114083;28;20096;-65
2023/01/03 07:40:43;;;;;;;5.68;5.15;;;;;;;3.79;96.64;100754.00;5114375;28;20063;-65
2023/01/03 07:45:52;;;;;;;2.95;2.65;;;;;;;3.93;96.80;100761.38;5114105;28;20051;-66
2023/01/03 07:48:21;;;;;;;6.82;3.95;;;;;;;4.00;97.02;100757.44;5114191;28;20464;-65
2023/01/03 07:50:50;;;;;;;6.57;4.17;;;;;;;4.04;96.63;100762.66;5113996;28;20036;-65
2023/01/03 07:53:19;;;;;;;3.60;3.27;;;;;;;4.07;96.43;100755.22;5113900;28;20040;-66
2023/01/03 07:55:47;;;;;;;7.40;3.47;;;;;;;4.17;96.63;100761.53;5114127;28;20078;-65
2023/01/03 07:58:16;;;;;;;3.40;3.10;;;;;;;4.21;97.15;100770.97;5113893;28;20039;-66
2023/01/03 08:00:45;;;;;;;4.38;3.03;;;;;;;4.25;97.10;100766.91;5113867;28;20131;-65
2023/01/03 08:03:15;;;;;;;6.87;4.40;;;;;;;4.29;96.73;100776.34;5113864;28;20067;-65
2023/01/03 08:05:44;;;;;;;7.15;4.47;;;;;;;4.32;96.76;100767.19;5113753;28;20490;-66
2023/01/03 08:08:13;;;;;;;3.00;2.77;;;;;;;4.38;96.99;100753.97;5113820;28;20039;-66
2023/01/03 08:13:23;;;;;;;3.47;3.10;;;;;;;4.38;97.17;100764.94;5114042;28;20040;-66
2023/01/03 08:15:54;;;;;;;2.63;2.40;;;;;;;4.42;97.05;100770.97;5113816;28;20051;-65
2023/01/03 08:18:26;;;;;;;2.55;2.35;;;;;;;4.50;97.21;100767.09;5113675;28;20087;-65
2023/01/03 08:20:56;;;;;;;2.63;2.17;;;;;;;4.53;97.41;100767.25;5113658;28;20047;-65
2023/01/03 08:23:26;;;;;;;25.95;4.63;;;;;;;4.61;96.62;100776.84;5110641;28;20402;-65
2023/01/03 08:26:01;;;;;;;6.43;3.83;;;;;;;4.71;97.34;100773.03;5106401;28;20439;-66
2023/01/03 08:28:30;;;;;;;12.70;4.57;;;;;;;4.82;97.18;100776.84;5093600;28;20052;-67
2023/01/03 08:31:02;;;;;;;4.20;2.60;;;;;;;4.89;97.53;100772.91;5093464;28;20409;-65
2023/01/03 08:33:38;;;;;;;6.18;4.45;;;;;;;4.95;97.84;100758.81;5093454;28;20436;-65
2023/01/03 08:36:10;;;;;;;4.85;4.45;;;;;;;5.01;97.39;100753.16;5093359;28;20071;-65
2023/01/03 08:38:44;;;;;;;4.47;4.07;;;;;;;5.11;97.57;100753.53;5095879;28;20055;-65
2023/01/03 08:41:17;;;;;;;4.30;3.95;;;;;;;5.17;97.72;100763.91;5096993;28;20052;-65
2023/01/03 08:43:48;;;;;;;4.88;3.55;;;;;;;5.25;97.77;100775.19;5097256;28;20044;-65
2023/01/03 08:46:19;;;;;;;9.88;5.07;;;;;;;5.29;98.03;100782.09;5096977;28;20113;-65
2023/01/03 08:48:49;;;;;;;2.95;2.53;;;;;;;5.28;97.32;100780.34;5096815;28;20074;-66
2023/01/03 08:51:18;;;;;;;2.17;1.98;;;;;;;5.29;97.85;100776.16;5096114;28;20048;-66
2023/01/03 08:53:47;;;;;;;5.38;4.43;;;;;;;5.32;97.42;100782.22;5102267;28;20066;-66
2023/01/03 08:56:16;;;;;;;8.27;6.57;;;;;;;5.36;97.17;100778.97;5096674;28;20521;-65
2023/01/03 08:58:45;;;;;;;7.27;5.43;;;;;;;5.36;97.65;100788.22;5097007;28;20076;-65
2023/01/03 09:01:14;;;;;;;7.90;4.75;;;;;;;5.35;97.28;100782.28;5096629;28;20046;-65
2023/01/03 09:03:43;;;;;;;5.85;5.10;;;;;;;5.51;97.21;100786.28;5096616;28;20130;-65
2023/01/03 09:06:14;;;;;;;4.32;2.92;;;;;;;5.57;97.57;100799.16;5096528;28;20097;-65
2023/01/03 09:08:43;;;;;;;15.65;6.13;;;;;;;5.67;97.33;100795.28;5096844;28;20143;-65
2023/01/03 09:11:12;;;;;;;10.43;9.70;;;;;;;5.70;97.67;100790.34;5096864;28;20098;-65
2023/01/03 09:13:42;;;;;;;6.97;5.32;;;;;;;5.77;97.55;100802.41;5096727;28;20502;-66
2023/01/03 09:16:14;;;;;;;2.63;2.42;;;;;;;5.82;97.33;100800.91;5096672;28;20393;-66
2023/01/03 09:18:44;;;;;;;11.20;6.57;;;;;;;5.85;97.85;100790.94;5096621;28;20044;-65
2023/01/03 09:21:14;;;;;;;5.03;4.03;;;;;;;5.86;97.64;100792.66;5096871;28;20115;-65
2023/01/03 09:23:43;;;;;;;9.10;5.78;;;;;;;5.91;97.47;100792.00;5096470;28;20567;-66
2023/01/03 09:26:11;;;;;;;9.73;4.93;;;;;;;6.00;97.68;100796.53;5096753;28;20040;-65
2023/01/03 09:28:40;;;;;;;8.52;6.70;;;;;;;6.01;97.70;100803.34;5096030;28;20055;-66
2023/01/03 09:31:09;;;;;;;3.22;2.97;;;;;;;6.04;97.68;100795.84;5096120;28;20048;-66
2023/01/03 09:33:38;;;;;;;7.30;5.03;;;;;;;6.03;97.04;100791.56;5096127;28;20223;-66
2023/01/03 09:36:08;;;;;;;6.03;5.43;;;;;;;6.11;97.52;100795.25;5095959;28;20334;-66
2023/01/03 09:38:37;;;;;;;;;;;;;;;6.19;97.22;100803.97;5096962;28;20448;-66
2023/01/03 09:41:11;;;;;;;4.38;3.97;;;;;;;6.23;97.02;100802.41;5095933;28;19927;-65
2023/01/03 09:43:45;;;;;;;7.03;3.50;;;;;;;6.14;97.04;100789.44;5095741;28;20040;-65
2023/01/03 09:46:18;;;;;;;2.85;2.38;;;;;;;6.20;97.22;100792.16;5095869;28;20090;-65
2023/01/03 09:48:49;;;;;;;4.88;3.67;;;;;;;6.22;97.72;100793.06;5095147;28;20052;-65
2023/01/03 10:05:02;;;;;;;6.70;3.78;;;;;;;6.59;97.75;100778.31;5098980;28;19919;-65
2023/01/03 10:07:45;;;;;;;4.20;3.83;;;;;;;6.54;97.13;100778.16;5095372;28;20046;-65
2023/01/03 10:10:22;;;;;;;2.45;2.25;;;;;;;6.61;96.87;100769.94;5095639;28;20055;-65
2023/01/03 10:13:05;;;;;;;4.32;2.47;;;;;;;6.83;97.45;100765.53;5105591;28;20040;-65
2023/01/03 10:15:47;;;;;;;3.75;2.85;;;;;;;6.95;97.62;100748.16;5115535;28;20048;-65
2023/01/03 10:18:29;;;;;;;5.07;4.53;;;;;;;7.02;96.75;100757.69;5114040;28;20039;-66
2023/01/03 10:21:07;;;;;;;4.10;3.33;;;;;;;6.99;96.79;100762.66;5095280;28;20048;-65
2023/01/03 10:23:37;;;;;;;3.60;1.92;;;;;;;7.06;97.03;100759.47;5104137;28;20379;-65
2023/01/03 10:26:11;;;;;;;;;;;;;;;7.08;96.70;100747.72;5095274;28;20068;-65
2023/01/03 10:28:45;;;;;;;3.60;2.67;;;;;;;7.11;97.42;100748.66;5094787;28;19923;-65
2023/01/03 10:31:39;;;;;;;4.22;3.83;;;;;;;7.18;97.17;100744.63;5095031;28;20044;-65
2023/01/03 10:34:11;;;;;;;10.45;4.68;;;;;;;7.26;96.57;100748.25;5095956;28;20126;-65
2023/01/03 10:36:40;;;;;;;4.60;2.45;;;;;;;7.27;96.38;100745.75;5102496;28;20039;-65
2023/01/03 10:39:10;;;;;;;1.80;1.67;;;;;;;7.27;96.88;100744.91;5094509;28;20040;-65
2023/01/03 10:41:44;;;;;;;4.20;3.80;;;;;;;7.33;96.45;100745.09;5094738;28;20097;-65
2023/01/03 10:44:25;;;;;;;2.55;2.35;;;;;;;7.37;97.00;100746.88;5094616;28;20047;-65
2023/01/03 10:46:56;;;;;;;3.88;3.58;;;;;;;7.42;97.46;100737.72;5094486;28;20048;-65
2023/01/03 10:49:27;;;;;;;2.92;2.63;;;;;;;7.45;96.83;100745.44;5094679;28;20115;-64
2023/01/03 10:52:02;;;;;;;2.58;2.17;;;;;;;7.41;96.60;100744.47;5106136;28;20047;-64
2023/01/03 10:54:46;;;;;;;3.92;3.40;;;;;;;7.38;95.95;100743.53;5112040;28;20058;-66
2023/01/03 10:57:36;;;;;;;3.08;2.78;;;;;;;7.34;96.68;100741.75;5102567;28;20064;-64
2023/01/03 11:00:19;;;;;;;;;;;;;;;7.32;96.79;100738.28;5099722;28;20032;-64
2023/01/03 11:02:49;;;;;;;3.60;3.30;;;;;;;7.31;97.12;100741.66;5109646;28;19989;-64
2023/01/03 11:05:20;;;;;;;2.72;2.53;;;;;;;7.33;96.75;100745.09;5114979;28;20043;-65
2023/01/03 11:07:55;;;;;;;3.58;3.25;;;;;;;7.33;96.95;100742.53;5114717;28;20054;-64
2023/01/03 11:10:26;;;;;;;3.65;3.35;;;;;;;7.36;96.66;100746.06;5114843;28;20134;-64
2023/01/03 11:12:58;;;;;;;3.20;2.10;;;;;;;7.39;97.04;100748.66;5114551;28;20135;-65
2023/01/03 11:15:36;;;;;;;6.82;3.08;;;;;;;7.42;96.57;100740.25;5111673;27;20116;-64
2023/01/03 11:18:17;;;;;;;4.85;4.32;;;;;;;7.47;96.93;100740.41;5100243;28;20046;-64
2023/01/03 11:20:52;;;;;;;4.35;3.30;;;;;;;7.51;96.90;100745.59;5095007;28;20044;-64
2023/01/03 11:23:30;;;;;;;3.28;2.65;;;;;;;7.57;97.07;100739.84;5094134;28;20139;-65
2023/01/03 11:26:08;;;;;;;4.65;3.50;;;;;;;7.66;97.58;100750.25;5094361;28;20099;-64
2023/01/03 11:29:01;;;;;;;3.95;3.63;;;;;;;7.77;96.54;100754.84;5093888;28;20497;-64
2023/01/03 11:31:40;;;;;;;2.25;1.95;;;;;;;7.79;96.34;100730.34;5093784;28;20047;-64
2023/01/03 11:34:26;;;;;;;6.03;4.47;;;;;;;7.92;96.95;100740.00;5100058;28;20074;-64
2023/01/03 11:37:25;;;;;;;4.15;1.92;;;;;;;8.02;97.22;100739.41;5114089;28;20046;-64
2023/01/03 11:40:08;;;;;;;4.68;4.03;;;;;;;8.07;97.25;100735.31;5105131;28;20134;-64
2023/01/03 11:42:49;;;;;;;5.28;3.38;;;;;;;8.13;97.72;100730.38;5105269;28;20081;-64
2023/01/03 11:45:41;;;;;;;4.85;2.92;;;;;;;8.21;96.56;100728.03;5094151;28;20101;-64
2023/01/03 11:48:40;;;;;;;5.55;4.53;;;;;;;8.31;96.96;100724.06;5094000;28;20046;-64
2023/01/03 11:51:15;;;;;;;4.13;3.50;;;;;;;8.38;96.97;100715.78;5093672;28;20059;-65
2023/01/03 11:54:00;;;;;;;5.30;4.20;;;;;;;8.46;97.19;100710.06;5098369;28;20432;-65
2023/01/03 11:56:34;;;;;;;2.25;2.05;;;;;;;8.53;97.43;100705.97;5113864;28;20043;-65
2023/01/03 11:59:35;;;;;;;3.10;2.85;;;;;;;8.59;97.43;100706.97;5109990;28;20050;-65
2023/01/03 12:02:32;;;;;;;6.75;3.25;;;;;;;8.69;96.84;100702.97;5107739;28;20101;-65
2023/01/03 12:05:18;;;;;;;15.73;3.60;;;;;;;8.75;97.62;100698.88;5103887;27;20044;-65
2023/01/03 12:08:00;;;;;;;5.25;3.53;;;;;;;8.82;97.40;100704.09;5093817;28;20102;-65
2023/01/03 12:10:48;;;;;;;10.07;2.92;;;;;;;8.85;97.41;100694.00;5093449;28;20044;-64
2023/01/03 12:13:25;;;;;;;2.17;2.00;;;;;;;8.88;96.84;100704.25;5096068;28;20051;-64
2023/01/03 12:16:04;;;;;;;3.10;2.75;;;;;;;8.91;97.35;100699.22;5097532;28;20052;-64
2023/01/03 12:18:43;;;;;;;1.90;1.70;;;;;;;8.96;96.68;100708.69;5097564;28;20127;-65
2023/01/03 12:21:20;;;;;;;2.97;2.67;;;;;;;9.00;96.87;100709.63;5097874;28;20044;-64
2023/01/03 12:23:57;;;;;;;3.05;2.78;;;;;;;9.04;96.64;100713.94;5100131;28;20512;-65
2023/01/03 12:26:29;;;;;;;2.35;2.15;;;;;;;9.01;96.81;100707.09;5118148;28;20125;-64
2023/01/03 12:29:04;;;;;;;2.42;2.22;;;;;;;9.08;97.08;100714.03;5117730;28;20118;-64
2023/01/03 12:31:39;;;;;;;3.42;2.72;;;;;;;9.11;96.93;100718.34;5112456;28;20052;-65
2023/01/03 12:34:19;;;;;;;2.75;2.30;;;;;;;9.16;96.69;100720.19;5107181;28;20035;-64
2023/01/03 12:36:59;;;;;;;2.70;2.47;;;;;;;9.14;96.22;100721.81;5117561;28;20055;-64
2023/01/03 12:39:39;;;;;;;3.38;2.40;;;;;;;9.12;96.97;100718.38;5118118;28;20047;-65
2023/01/03 12:42:20;;;;;;;16.10;3.75;;;;;;;9.12;96.11;100717.50;5118008;28;20047;-65
2023/01/03 12:44:57;;;;;;;9.27;3.15;;;;;;;9.13;96.31;100712.47;5117713;27;20044;-65
2023/01/03 12:47:31;;;;;;;2.75;2.55;;;;;;;9.15;96.51;100710.81;5117465;27;20492;-64
2023/01/03 12:50:07;;;;;;;2.47;1.60;;;;;;;9.17;96.18;100711.69;5117591;28;20052;-64
2023/01/03 12:52:39;;;;;;;1.92;1.83;;;;;;;9.17;96.58;100714.25;5117618;28;20043;-65
2023/01/03 12:55:20;;;;;;;2.22;1.52;;;;;;;9.16;96.04;100712.53;5112018;28;20051;-64
2023/01/03 12:58:03;;;;;;;2.28;2.00;;;;;;;9.17;96.35;100715.91;5107296;28;20036;-64
2023/01/03 13:00:53;;;;;;;1.85;1.75;;;;;;;9.15;96.20;100717.56;5096075;28;20097;-65
2023/01/03 13:03:27;;;;;;;2.83;2.25;;;;;;;9.16;96.17;100709.13;5096043;28;20048;-65
2023/01/03 13:06:01;;;;;;;2.20;1.95;;;;;;;9.17;96.17;100709.16;5104577;28;20093;-65
2023/01/03 13:08:36;;;;;;;2.33;2.13;;;;;;;9.15;96.27;100713.34;5105851;28;20059;-64